createdAt,value
2022-12-18T00:00:01.747Z,0.53
2022-12-18T00:02:29.764Z,0.44
2022-12-18T00:04:58.270Z,0.36
2022-12-18T00:07:26.068Z,0.33
2022-12-18T00:09:53.967Z,0.41
2022-12-18T00:12:21.820Z,0.52
2022-12-18T00:14:49.617Z,0.48
2022-12-18T00:17:17.469Z,0.23
2022-12-18T00:19:45.328Z,0.34
2022-12-18T00:22:13.318Z,0.45
2022-12-18T00:24:41.300Z,0.52
2022-12-18T00:27:09.473Z,0.07
2022-12-18T00:29:37.301Z,-0.93
2022-12-18T00:32:05.310Z,-1.49
2022-12-18T00:34:33.133Z,-0.59
2022-12-18T00:37:00.915Z,0.18
2022-12-18T00:39:28.763Z,0.44
2022-12-18T00:42:15.266Z,0.27
2022-12-18T00:44:43.081Z,-0.93
2022-12-18T00:47:10.837Z,-1.86
2022-12-18T00:49:38.586Z,-2.50
2022-12-18T00:52:06.521Z,-2.57
2022-12-18T00:54:34.328Z,-1.63
2022-12-18T00:57:02.198Z,-0.79
2022-12-18T00:59:31.448Z,-0.31
2022-12-18T01:01:59.398Z,-0.14
2022-12-18T01:04:27.319Z,0.04
2022-12-18T01:06:55.353Z,0.01
2022-12-18T01:09:23.187Z,0.06
2022-12-18T01:11:52.955Z,0.23
2022-12-18T01:14:20.812Z,0.16
2022-12-18T01:16:48.700Z,-0.75
2022-12-18T01:19:17.136Z,-1.75
2022-12-18T01:21:44.959Z,-2.40
2022-12-18T01:24:12.993Z,-1.84
2022-12-18T01:26:40.837Z,-0.98
2022-12-18T01:29:08.805Z,-0.38
2022-12-18T01:31:36.834Z,-0.30
2022-12-18T01:34:05.545Z,-0.15
2022-12-18T01:36:35.843Z,-0.17
2022-12-18T01:39:14.091Z,-0.17
2022-12-18T01:42:02.132Z,-0.15
2022-12-18T01:45:05.236Z,-0.05
2022-12-18T01:47:57.559Z,-1.11
2022-12-18T01:50:32.796Z,-2.25
2022-12-18T01:53:12.190Z,-2.18
2022-12-18T01:55:46.144Z,-1.51
2022-12-18T01:58:14.107Z,-0.88
2022-12-18T02:00:42.875Z,-0.19
2022-12-18T02:03:10.917Z,0.21
2022-12-18T02:06:18.539Z,-0.15
2022-12-18T02:09:29.945Z,-1.54
2022-12-18T02:12:11.677Z,-2.40
2022-12-18T02:14:46.919Z,-1.44
2022-12-18T02:17:21.575Z,-0.66
2022-12-18T02:20:09.456Z,-0.43
2022-12-18T02:23:05.048Z,-0.38
2022-12-18T02:26:03.941Z,-0.36
2022-12-18T02:28:36.243Z,-1.27
2022-12-18T02:31:07.928Z,-2.20
2022-12-18T02:33:36.195Z,-2.92
2022-12-18T02:36:04.823Z,-3.40
2022-12-18T02:38:33.506Z,-2.50
2022-12-18T02:41:06.596Z,-1.19
2022-12-18T02:43:34.460Z,-0.90
2022-12-18T02:46:27.467Z,-0.88
2022-12-18T02:49:15.590Z,-0.78
2022-12-18T02:52:25.000Z,-0.73
2022-12-18T02:55:49.266Z,-0.58
2022-12-18T02:58:56.267Z,-0.61
2022-12-18T03:01:38.094Z,-0.52
2022-12-18T03:04:10.981Z,-0.57
2022-12-18T03:07:51.348Z,-1.56
2022-12-18T03:10:26.643Z,-2.78
2022-12-18T03:13:09.997Z,-3.23
2022-12-18T03:15:43.574Z,-2.22
2022-12-18T03:18:15.737Z,-1.34
2022-12-18T03:20:45.075Z,-0.95
2022-12-18T03:23:18.843Z,-0.67
2022-12-18T03:25:48.804Z,-0.19
2022-12-18T03:28:21.395Z,0.06
2022-12-18T03:30:54.992Z,0.16
2022-12-18T03:33:28.530Z,0.34
2022-12-18T03:35:56.802Z,-0.24
2022-12-18T03:38:24.876Z,-1.35
2022-12-18T03:41:04.417Z,-2.25
2022-12-18T03:43:55.024Z,-2.85
2022-12-18T03:46:37.113Z,-2.15
2022-12-18T03:49:25.085Z,-1.33
2022-12-18T03:52:14.213Z,-0.77
2022-12-18T03:54:42.415Z,-0.39
2022-12-18T03:57:22.950Z,-0.15
2022-12-18T03:59:57.514Z,0.10
2022-12-18T04:02:29.952Z,0.03
2022-12-18T04:05:01.799Z,0.01
2022-12-18T04:07:29.774Z,0.08
2022-12-18T04:09:59.785Z,0.25
2022-12-18T04:12:29.165Z,0.37
2022-12-18T04:14:57.365Z,0.50
2022-12-18T04:17:25.161Z,0.73
2022-12-18T04:19:53.831Z,0.95
2022-12-18T04:22:21.674Z,0.07
2022-12-18T04:24:52.435Z,-1.11
2022-12-18T04:27:27.961Z,-1.93
2022-12-18T04:29:56.292Z,-2.52
2022-12-18T04:32:24.194Z,-2.52
2022-12-18T04:34:52.901Z,-1.38
2022-12-18T04:37:21.066Z,-0.33
2022-12-18T04:39:50.658Z,0.14
2022-12-18T04:42:24.886Z,0.27
2022-12-18T04:44:52.668Z,0.38
2022-12-18T04:47:20.448Z,0.51
2022-12-18T04:49:48.264Z,0.57
2022-12-18T04:52:16.232Z,0.50
2022-12-18T04:54:44.192Z,-0.25
2022-12-18T04:57:11.996Z,-1.27
2022-12-18T04:59:39.832Z,-2.09
2022-12-18T05:02:07.945Z,-1.82
2022-12-18T05:04:35.828Z,-0.94
2022-12-18T05:07:03.655Z,-0.38
2022-12-18T05:09:31.432Z,0.06
2022-12-18T05:11:59.257Z,0.24
2022-12-18T05:14:28.676Z,0.12
2022-12-18T05:17:00.661Z,0.15
2022-12-18T05:19:28.861Z,0.29
2022-12-18T05:21:56.760Z,0.29
2022-12-18T05:24:24.626Z,0.23
2022-12-18T05:26:52.490Z,0.29
2022-12-18T05:29:20.320Z,0.26
2022-12-18T05:31:48.449Z,0.21
2022-12-18T05:34:16.518Z,0.70
2022-12-18T05:36:44.465Z,1.34
2022-12-18T05:39:12.506Z,0.93
2022-12-18T05:41:40.299Z,-0.41
2022-12-18T05:44:09.498Z,-1.49
2022-12-18T05:46:37.592Z,-1.87
2022-12-18T05:49:05.471Z,-0.03
2022-12-18T05:51:33.337Z,1.20
2022-12-18T05:54:01.118Z,1.41
2022-12-18T05:56:28.924Z,0.55
2022-12-18T05:58:57.097Z,-0.84
2022-12-18T06:01:27.489Z,-1.74
2022-12-18T06:03:56.238Z,-1.43
2022-12-18T06:06:26.499Z,0.12
2022-12-18T06:08:54.701Z,1.55
2022-12-18T06:11:25.120Z,1.39
2022-12-18T06:13:58.776Z,0.13
2022-12-18T06:16:28.534Z,-1.12
2022-12-18T06:19:04.081Z,-0.44
2022-12-18T06:21:38.907Z,1.35
2022-12-18T06:24:07.496Z,1.21
2022-12-18T06:26:35.281Z,-0.01
2022-12-18T06:29:03.070Z,-1.07
2022-12-18T06:31:31.038Z,-1.83
2022-12-18T06:33:59.163Z,-1.94
2022-12-18T06:36:27.028Z,-0.40
2022-12-18T06:38:54.888Z,0.52
2022-12-18T06:41:22.762Z,0.72
2022-12-18T06:43:50.844Z,1.20
2022-12-18T06:46:19.283Z,0.86
2022-12-18T06:48:51.037Z,-0.51
2022-12-18T06:51:20.977Z,-1.50
2022-12-18T06:53:48.810Z,-1.40
2022-12-18T06:56:16.624Z,-0.49
2022-12-18T06:58:44.844Z,-0.01
2022-12-18T07:01:12.847Z,0.40
2022-12-18T07:03:41.753Z,0.55
2022-12-18T07:06:18.843Z,0.62
2022-12-18T07:08:47.608Z,-0.04
2022-12-18T07:11:15.789Z,-1.04
2022-12-18T07:13:43.934Z,-1.69
2022-12-18T07:16:19.645Z,-1.06
2022-12-18T07:18:51.065Z,-0.09
2022-12-18T07:21:21.866Z,0.64
2022-12-18T07:23:49.755Z,1.30
2022-12-18T07:26:19.989Z,1.64
2022-12-18T07:28:48.253Z,0.87
2022-12-18T07:31:19.096Z,-0.40
2022-12-18T07:33:47.150Z,-1.32
2022-12-18T07:36:15.242Z,-1.93
2022-12-18T07:38:43.034Z,-2.37
2022-12-18T07:41:13.415Z,-2.47
2022-12-18T07:43:42.612Z,-1.46
2022-12-18T07:46:11.328Z,-0.44
2022-12-18T07:48:42.514Z,0.25
2022-12-18T07:51:13.951Z,0.65
2022-12-18T07:53:42.687Z,0.86
2022-12-18T07:56:29.622Z,1.12
2022-12-18T07:59:00.408Z,1.16
2022-12-18T08:01:28.607Z,0.40
2022-12-18T08:03:56.659Z,-0.60
2022-12-18T08:06:25.019Z,-1.33
2022-12-18T08:08:54.557Z,-1.86
2022-12-18T08:11:23.430Z,-1.48
2022-12-18T08:13:51.400Z,-0.13
2022-12-18T08:16:19.608Z,0.76
2022-12-18T08:18:48.689Z,1.19
2022-12-18T08:21:25.761Z,1.50
2022-12-18T08:23:54.891Z,0.97
2022-12-18T08:26:23.322Z,-0.05
2022-12-18T08:28:51.709Z,-0.77
2022-12-18T08:31:20.014Z,-1.26
2022-12-18T08:33:51.058Z,-1.61
2022-12-18T08:36:20.226Z,-1.19
2022-12-18T08:38:48.383Z,0.12
2022-12-18T08:41:17.890Z,0.93
2022-12-18T08:44:04.693Z,1.52
2022-12-18T08:46:41.353Z,2.12
2022-12-18T08:49:11.006Z,2.50
2022-12-18T08:51:39.860Z,1.50
2022-12-18T08:54:08.653Z,0.35
2022-12-18T08:56:36.513Z,-0.42
2022-12-18T08:59:05.532Z,-0.91
2022-12-18T09:01:33.564Z,-0.77
2022-12-18T09:04:02.163Z,0.68
2022-12-18T09:06:30.129Z,1.69
2022-12-18T09:08:58.303Z,2.33
2022-12-18T09:11:27.972Z,1.89
2022-12-18T09:13:56.805Z,0.83
2022-12-18T09:16:31.523Z,0.00
2022-12-18T09:19:00.971Z,-0.69
2022-12-18T09:21:32.884Z,-0.27
2022-12-18T09:24:04.542Z,0.79
2022-12-18T09:26:34.963Z,1.28
2022-12-18T09:29:03.958Z,0.51
2022-12-18T09:31:31.766Z,-0.51
2022-12-18T09:33:59.686Z,-1.17
2022-12-18T09:36:27.463Z,-0.75
2022-12-18T09:38:55.931Z,0.14
2022-12-18T09:41:51.758Z,0.62
2022-12-18T09:44:38.882Z,1.00
2022-12-18T09:47:32.134Z,0.62
2022-12-18T09:50:26.104Z,-0.34
2022-12-18T09:52:56.323Z,-0.74
2022-12-18T09:55:37.515Z,0.23
2022-12-18T09:58:26.796Z,1.33
2022-12-18T10:00:55.505Z,1.79
2022-12-18T10:03:23.523Z,0.95
2022-12-18T10:06:08.397Z,-0.00
2022-12-18T10:09:04.484Z,-0.82
2022-12-18T10:11:50.303Z,-1.35
2022-12-18T10:14:31.908Z,-1.63
2022-12-18T10:17:35.315Z,-0.79
2022-12-18T10:20:36.945Z,0.65
2022-12-18T10:23:15.047Z,1.10
2022-12-18T10:26:05.958Z,1.41
2022-12-18T10:28:37.166Z,1.24
2022-12-18T10:31:18.146Z,0.28
2022-12-18T10:33:46.245Z,-0.63
2022-12-18T10:36:14.335Z,-0.77
2022-12-18T10:38:42.888Z,0.20
2022-12-18T10:41:22.125Z,0.94
2022-12-18T10:44:10.793Z,1.36
2022-12-18T10:46:38.614Z,1.42
2022-12-18T10:49:06.408Z,0.47
2022-12-18T10:51:36.010Z,-0.39
2022-12-18T10:54:15.496Z,-1.04
2022-12-18T10:56:43.694Z,-1.04
2022-12-18T10:59:17.328Z,-0.10
2022-12-18T11:01:56.676Z,0.74
2022-12-18T11:04:30.564Z,1.22
2022-12-18T11:07:06.426Z,1.30
2022-12-18T11:09:36.541Z,0.47
2022-12-18T11:12:17.135Z,-0.47
2022-12-18T11:14:49.580Z,-1.18
2022-12-18T11:17:25.245Z,-0.90
2022-12-18T11:19:58.512Z,0.06
2022-12-18T11:22:34.826Z,0.66
2022-12-18T11:25:35.432Z,1.16
2022-12-18T11:28:38.957Z,1.42
2022-12-18T11:31:24.351Z,0.41
2022-12-18T11:36:49.524Z,-1.31
2022-12-18T11:39:46.762Z,-0.93
2022-12-18T11:42:25.744Z,0.48
2022-12-18T11:45:03.999Z,1.08
2022-12-18T11:48:00.443Z,1.48
2022-12-18T11:50:58.626Z,1.38
2022-12-18T11:53:27.485Z,0.18
2022-12-18T11:56:32.051Z,-0.75
2022-12-18T11:59:31.479Z,-1.49
2022-12-18T12:02:34.253Z,-0.89
2022-12-18T12:05:05.286Z,-0.10
2022-12-18T12:08:12.343Z,0.40
2022-12-18T12:10:47.509Z,0.89
2022-12-18T12:13:55.933Z,0.76
2022-12-18T12:16:38.734Z,-0.34
2022-12-18T12:19:31.654Z,-1.13
2022-12-18T12:22:09.342Z,-1.77
2022-12-18T12:24:56.637Z,-2.08
2022-12-18T12:27:55.672Z,-1.23
2022-12-18T12:31:07.362Z,-0.11
2022-12-18T12:33:45.247Z,0.53
2022-12-18T12:36:38.287Z,0.85
2022-12-18T12:39:09.618Z,0.84
2022-12-18T12:41:57.196Z,-0.07
2022-12-18T12:44:32.004Z,-1.02
2022-12-18T12:47:04.501Z,-1.68
2022-12-18T12:49:37.556Z,-2.15
2022-12-18T12:52:14.043Z,-2.05
2022-12-18T12:54:42.216Z,-1.03
2022-12-18T12:57:39.062Z,-0.22
2022-12-18T13:00:10.118Z,0.39
2022-12-18T13:02:49.049Z,0.70
2022-12-18T13:05:35.885Z,0.30
2022-12-18T13:08:07.298Z,-0.74
2022-12-18T13:10:36.723Z,-1.47
2022-12-18T13:13:17.160Z,-1.99
2022-12-18T13:16:08.332Z,-2.40
2022-12-18T13:18:36.448Z,-1.89
2022-12-18T13:21:21.088Z,-1.05
2022-12-18T13:23:50.001Z,-0.31
2022-12-18T13:26:19.900Z,0.16
2022-12-18T13:28:55.680Z,0.53
2022-12-18T13:31:42.192Z,0.70
2022-12-18T13:34:26.081Z,0.09
2022-12-18T13:36:56.464Z,-0.91
2022-12-18T13:39:35.931Z,-1.60
2022-12-18T13:42:07.644Z,-2.14
2022-12-18T13:44:43.090Z,-2.54
2022-12-18T13:47:35.076Z,-2.85
2022-12-18T13:50:11.023Z,-2.85
2022-12-18T13:52:38.897Z,-1.17
2022-12-18T13:55:15.290Z,0.70
2022-12-18T13:57:43.739Z,0.74
2022-12-18T14:00:29.668Z,-0.43
2022-12-18T14:02:58.934Z,-1.58
2022-12-18T14:05:33.376Z,-2.30
2022-12-18T14:08:15.571Z,-2.58
2022-12-18T14:10:49.510Z,-1.22
2022-12-18T14:13:27.991Z,0.13
2022-12-18T14:15:55.873Z,1.08
2022-12-18T14:18:27.486Z,0.50
2022-12-18T14:21:00.902Z,-0.63
2022-12-18T14:23:41.601Z,-1.47
2022-12-18T14:26:30.432Z,-2.11
2022-12-18T14:29:19.415Z,-2.67
2022-12-18T14:31:47.847Z,-3.10
2022-12-18T14:34:17.964Z,-3.37
2022-12-18T14:36:56.367Z,-3.59
2022-12-18T14:39:26.597Z,-3.78
2022-12-18T14:41:55.246Z,-3.46
2022-12-18T14:44:24.069Z,-1.16
2022-12-18T14:46:52.191Z,1.14
2022-12-18T14:49:35.499Z,2.27
2022-12-18T14:52:27.913Z,1.37
2022-12-18T14:54:55.722Z,-0.23
2022-12-18T14:57:26.406Z,-1.30
2022-12-18T14:59:54.229Z,-2.01
2022-12-18T15:02:27.949Z,-2.50
2022-12-18T15:05:11.311Z,-2.91
2022-12-18T15:07:53.154Z,-3.25
2022-12-18T15:10:32.835Z,-3.53
2022-12-18T15:13:01.642Z,-2.55
2022-12-18T15:15:38.724Z,0.29
2022-12-18T15:18:18.058Z,2.01
2022-12-18T15:20:50.866Z,1.36
2022-12-18T15:23:31.397Z,-0.10
2022-12-18T15:26:10.085Z,-1.45
2022-12-18T15:28:56.193Z,-2.26
2022-12-18T15:31:37.503Z,-2.88
2022-12-18T15:34:08.823Z,-3.32
2022-12-18T15:36:37.651Z,-2.77
2022-12-18T15:39:06.677Z,-0.72
2022-12-18T15:41:36.367Z,0.49
2022-12-18T15:44:18.403Z,0.22
2022-12-18T15:46:46.200Z,-1.02
2022-12-18T15:49:13.998Z,-2.00
2022-12-18T15:51:41.926Z,-2.70
2022-12-18T15:54:14.109Z,-3.04
2022-12-18T15:57:00.852Z,-1.82
2022-12-18T15:59:28.728Z,-0.55
2022-12-18T16:01:57.500Z,0.45
2022-12-18T16:04:26.358Z,0.41
2022-12-18T16:09:42.946Z,-1.85
2022-12-18T16:12:23.771Z,-2.60
2022-12-18T16:14:51.881Z,-3.19
2022-12-18T16:17:19.736Z,-2.81
2022-12-18T16:19:47.813Z,-1.87
2022-12-18T16:22:22.130Z,-1.26
2022-12-18T16:24:51.329Z,-0.88
2022-12-18T16:27:19.412Z,-1.04
2022-12-18T16:29:47.367Z,-1.80
2022-12-18T16:32:17.489Z,-2.57
2022-12-18T16:34:45.759Z,-3.10
2022-12-18T16:37:14.850Z,-2.28
2022-12-18T16:39:43.027Z,-1.01
2022-12-18T16:42:20.378Z,-0.09
2022-12-18T16:44:49.653Z,0.14
2022-12-18T16:47:18.193Z,-0.85
2022-12-18T16:49:46.608Z,-1.89
2022-12-18T16:52:14.756Z,-2.78
2022-12-18T16:54:42.530Z,-3.35
2022-12-18T16:57:13.245Z,-3.73
2022-12-18T16:59:41.107Z,-4.02
2022-12-18T17:02:15.851Z,-3.45
2022-12-18T17:04:45.558Z,-2.19
2022-12-18T17:07:13.683Z,-1.39
2022-12-18T17:09:41.984Z,-1.20
2022-12-18T17:12:10.055Z,-1.09
2022-12-18T17:14:37.958Z,-1.01
2022-12-18T17:17:22.688Z,-1.42
2022-12-18T17:19:52.152Z,-2.39
2022-12-18T17:22:22.000Z,-3.18
2022-12-18T17:24:50.271Z,-3.00
2022-12-18T17:27:18.143Z,-2.18
2022-12-18T17:29:48.427Z,-1.18
2022-12-18T17:32:17.994Z,-0.35
2022-12-18T17:34:46.142Z,-0.70
2022-12-18T17:37:14.310Z,-1.73
2022-12-18T17:39:42.579Z,-2.63
2022-12-18T17:42:14.929Z,-3.30
2022-12-18T17:44:44.560Z,-3.44
2022-12-18T17:47:13.655Z,-2.25
2022-12-18T17:49:42.578Z,-0.74
2022-12-18T17:52:10.565Z,0.41
2022-12-18T17:54:41.533Z,0.74
2022-12-18T17:57:09.623Z,-0.35
2022-12-18T17:59:37.443Z,-1.41
2022-12-18T18:02:05.704Z,-2.13
2022-12-18T18:04:34.861Z,-2.64
2022-12-18T18:07:03.265Z,-3.05
2022-12-18T18:09:32.535Z,-3.38
2022-12-18T18:12:18.948Z,-3.65
2022-12-18T18:14:47.211Z,-3.93
2022-12-18T18:17:15.688Z,-4.15
2022-12-18T18:19:45.465Z,-4.36
2022-12-18T18:22:18.179Z,-4.57
2022-12-18T18:24:47.074Z,-4.26
2022-12-18T18:27:15.285Z,-2.38
2022-12-18T18:29:43.331Z,-0.82
2022-12-18T18:32:11.336Z,0.34
2022-12-18T18:34:39.247Z,1.06
2022-12-18T18:37:07.317Z,1.59
2022-12-18T18:39:35.389Z,2.02
2022-12-18T18:42:03.358Z,2.30
2022-12-18T18:44:31.249Z,2.48
2022-12-18T18:46:59.596Z,2.58
2022-12-18T18:49:28.117Z,3.03
2022-12-18T18:51:57.280Z,3.50
2022-12-18T18:54:25.743Z,3.82
2022-12-18T18:57:19.348Z,4.10
2022-12-18T18:59:42.275Z,4.30
2022-12-18T19:02:14.361Z,4.35
2022-12-18T19:04:45.998Z,4.41
2022-12-18T19:07:29.374Z,4.24
2022-12-18T19:10:05.041Z,3.83
2022-12-18T19:12:53.521Z,3.49
2022-12-18T19:15:22.969Z,3.30
2022-12-18T19:17:51.094Z,2.95
2022-12-18T19:20:19.261Z,2.63
2022-12-18T19:22:52.221Z,2.33
2022-12-18T19:25:37.575Z,2.06
2022-12-18T19:28:15.849Z,1.87
2022-12-18T19:30:57.301Z,1.70
2022-12-18T19:33:42.250Z,1.43
2022-12-18T19:36:21.329Z,1.41
2022-12-18T19:38:49.896Z,1.77
2022-12-18T19:41:19.351Z,1.85
2022-12-18T19:43:47.731Z,1.68
2022-12-18T19:46:18.369Z,1.80
2022-12-18T19:48:46.991Z,2.12
2022-12-18T19:51:23.353Z,2.22
2022-12-18T19:53:56.628Z,2.05
2022-12-18T19:56:28.141Z,2.00
2022-12-18T19:58:56.019Z,2.08
2022-12-18T20:01:25.137Z,1.97
2022-12-18T20:03:55.509Z,1.61
2022-12-18T20:06:32.731Z,1.69
2022-12-18T20:09:06.265Z,1.36
2022-12-18T20:11:36.922Z,0.91
2022-12-18T20:14:13.783Z,1.23
2022-12-18T20:16:41.903Z,1.52
2022-12-18T20:19:11.428Z,1.34
2022-12-18T20:21:39.285Z,1.25
2022-12-18T20:24:08.901Z,1.07
2022-12-18T20:26:36.742Z,0.72
2022-12-18T20:29:04.648Z,0.39
2022-12-18T20:31:32.590Z,0.31
2022-12-18T20:34:03.552Z,0.53
2022-12-18T20:36:35.117Z,0.50
2022-12-18T20:39:06.595Z,0.19
2022-12-18T20:41:38.232Z,-0.14
2022-12-18T20:44:21.793Z,-0.32
2022-12-18T20:46:56.862Z,-0.47
2022-12-18T20:49:26.331Z,-0.65
2022-12-18T20:51:56.448Z,-0.79
2022-12-18T20:54:26.320Z,-0.55
2022-12-18T20:56:54.380Z,-0.84
2022-12-18T20:59:23.422Z,-1.12
2022-12-18T21:01:52.549Z,-1.36
2022-12-18T21:04:20.739Z,-1.50
2022-12-18T21:06:53.389Z,-1.59
2022-12-18T21:09:25.884Z,-1.44
2022-12-18T21:12:14.324Z,-1.51
2022-12-18T21:14:43.069Z,-1.61
2022-12-18T21:17:11.544Z,-1.76
2022-12-18T21:19:40.189Z,-1.92
2022-12-18T21:22:10.107Z,-2.04
2022-12-18T21:24:38.174Z,-1.74
2022-12-18T21:27:06.465Z,-0.63
2022-12-18T21:29:35.083Z,-0.00
2022-12-18T21:32:03.718Z,-0.06
2022-12-18T21:34:32.605Z,-0.65
2022-12-18T21:37:01.088Z,-1.05
2022-12-18T21:39:30.077Z,-1.35
2022-12-18T21:42:17.002Z,-1.60
2022-12-18T21:44:45.260Z,-1.81
2022-12-18T21:47:22.387Z,-2.01
2022-12-18T21:49:54.100Z,-1.70
2022-12-18T21:52:32.046Z,-1.83
2022-12-18T21:55:08.605Z,-2.01
2022-12-18T21:57:39.001Z,-2.09
2022-12-18T22:00:10.582Z,-1.78
2022-12-18T22:02:40.664Z,-1.63
2022-12-18T22:05:09.351Z,-1.90
2022-12-18T22:07:37.322Z,-2.09
2022-12-18T22:10:06.075Z,-1.84
2022-12-18T22:12:44.477Z,-1.63
2022-12-18T22:15:21.101Z,-1.61
2022-12-18T22:17:51.323Z,-1.50
2022-12-18T22:20:26.749Z,-1.39
2022-12-18T22:22:54.818Z,-1.34
2022-12-18T22:25:22.692Z,-1.21
2022-12-18T22:28:09.440Z,-1.23
2022-12-18T22:30:37.261Z,-1.20
2022-12-18T22:33:05.057Z,-1.22
2022-12-18T22:35:32.989Z,-1.00
2022-12-18T22:38:00.956Z,-0.93
2022-12-18T22:40:29.159Z,-0.98
2022-12-18T22:42:57.075Z,-0.96
2022-12-18T22:45:26.499Z,-0.83
2022-12-18T22:47:54.671Z,-0.71
2022-12-18T22:50:22.642Z,-0.64
2022-12-18T22:52:50.436Z,-0.52
2022-12-18T22:55:18.574Z,-0.46
2022-12-18T22:57:48.852Z,-0.36
2022-12-18T23:00:23.969Z,-0.49
2022-12-18T23:02:59.714Z,-0.57
2022-12-18T23:05:30.670Z,-0.46
2022-12-18T23:07:59.179Z,-0.36
2022-12-18T23:10:27.591Z,-0.29
2022-12-18T23:12:55.587Z,-0.28
2022-12-18T23:15:28.542Z,-0.27
2022-12-18T23:17:59.776Z,-0.14
2022-12-18T23:20:27.776Z,-0.13
2022-12-18T23:22:55.647Z,-0.15
2022-12-18T23:25:24.804Z,-0.24
2022-12-18T23:27:52.804Z,-0.31
2022-12-18T23:30:20.742Z,-0.32
2022-12-18T23:32:48.612Z,-0.29
2022-12-18T23:35:17.494Z,-0.28
2022-12-18T23:38:02.125Z,-0.21
2022-12-18T23:40:30.118Z,-0.12
2022-12-18T23:42:59.531Z,-0.16
2022-12-18T23:45:27.543Z,-0.09
2022-12-18T23:47:55.387Z,-0.15
2022-12-18T23:50:29.287Z,-0.17
2022-12-18T23:53:04.788Z,-0.20
2022-12-18T23:55:39.471Z,-0.17
2022-12-18T23:58:18.322Z,-0.05
